.
WxDataArchive / Data Records for 2009-05-10
2009-05-09 May 2009 2009-05-11

Data Records for Sunday, 10 May 2009

Time	Temp	Chill	HIndex	Humid	Dewpt	 Wind 	HiWind	WindDir	Rain 	Barom 
-----	----	-----	------	-----	-----	------	------	-------	-----	----- 
00:00	48.6	48.6	48.6	85	44.3	0	1	270	0.00	30.075 
00:05	48.6	48.6	48.6	85	44.3	0	0	---	0.00	30.075 
00:10	48.6	48.6	48.6	85	44.3	0	0	---	0.00	30.075 
00:15	48.6	48.6	48.6	85	44.3	0	1	270	0.00	30.072 
00:20	48.6	48.6	48.6	85	44.3	0	1	270	0.00	30.072 
00:25	48.8	48.8	48.8	85	44.5	0	1	270	0.00	30.072 
00:30	48.8	48.8	48.8	84	44.2	0	1	270	0.00	30.071 
00:35	48.6	48.6	48.6	84	44.0	0	1	270	0.00	30.071 
00:40	48.6	48.6	48.6	84	44.0	0	1	270	0.00	30.071 
00:45	48.6	48.6	48.6	84	44.0	0	1	270	0.00	30.076 
00:50	48.5	48.5	48.5	84	43.9	0	1	270	0.00	30.076 
00:55	48.3	48.3	48.3	85	44.0	0	1	292	0.00	30.076 
01:00	48.3	48.3	48.3	85	44.0	0	2	292	0.00	30.078 
01:05	48.3	48.3	48.3	85	44.0	0	2	292	0.00	30.078 
01:10	48.2	48.2	48.2	85	43.9	0	1	292	0.00	30.078 
01:15	48.0	48.0	48.0	85	43.7	0	1	292	0.00	30.079 
01:20	48.0	48.0	48.0	85	43.7	0	1	292	0.00	30.079 
01:25	47.9	47.9	47.9	85	43.6	0	1	292	0.00	30.079 
01:30	47.7	47.7	47.7	86	43.7	0	1	292	0.00	30.078 
01:35	47.6	47.6	47.6	86	43.6	0	2	292	0.00	30.078 
01:40	47.6	47.6	47.6	86	43.6	0	1	292	0.00	30.078 
01:45	47.4	47.4	47.4	86	43.4	0	1	292	0.00	30.080 
01:50	47.3	47.3	47.3	87	43.6	0	1	292	0.00	30.080 
01:55	47.1	47.1	47.1	87	43.4	0	1	292	0.00	30.080 
02:00	47.0	47.0	47.0	87	43.3	0	1	292	0.00	30.081 
02:05	46.8	46.8	46.8	87	43.1	0	1	292	0.00	30.081 
02:10	46.7	46.7	46.7	88	43.3	0	0	---	0.00	30.081 
02:15	46.5	46.5	46.5	88	43.1	0	1	292	0.00	30.083 
02:20	46.4	46.4	46.4	88	43.0	0	1	292	0.00	30.083 
02:25	46.2	46.2	46.2	88	42.8	0	1	292	0.00	30.083 
02:30	46.2	46.2	46.2	88	42.8	0	1	225	0.00	30.087 
02:35	46.1	46.1	46.1	89	43.0	0	1	225	0.00	30.087 
02:40	46.1	46.1	46.1	89	43.0	0	2	225	0.00	30.087 
02:45	46.0	46.0	46.0	89	42.9	0	1	315	0.00	30.093 
02:50	45.8	45.8	45.8	89	42.7	0	1	315	0.00	30.093 
02:55	45.7	45.7	45.7	89	42.6	0	1	315	0.00	30.093 
03:00	45.5	45.5	45.5	89	42.4	0	0	---	0.00	30.096 
03:05	45.2	45.2	45.2	89	42.2	0	1	315	0.00	30.096 
03:10	45.1	45.1	45.1	89	42.1	0	1	315	0.00	30.096 
03:15	44.9	44.9	44.9	90	42.1	0	0	---	0.00	30.100 
03:20	44.9	44.9	44.9	90	42.1	0	0	---	0.00	30.100 
03:25	44.9	44.9	44.9	90	42.1	0	1	315	0.00	30.100 
03:30	44.8	44.8	44.8	90	42.0	0	0	---	0.00	30.101 
03:35	44.8	44.8	44.8	90	42.0	0	1	315	0.00	30.101 
03:40	44.6	44.6	44.6	91	42.1	0	1	315	0.00	30.101 
03:45	44.6	44.6	44.6	91	42.1	0	0	---	0.00	30.104 
03:50	44.6	44.6	44.6	91	42.1	0	0	---	0.00	30.104 
03:55	44.5	44.5	44.5	91	42.0	0	0	---	0.00	30.104 
04:00	44.3	44.3	44.3	91	41.8	0	0	---	0.00	30.107 
04:05	44.2	44.2	44.2	91	41.7	0	0	---	0.00	30.107 
04:10	44.2	44.2	44.2	91	41.7	0	0	---	0.00	30.107 
04:15	44.2	44.2	44.2	91	41.7	0	0	---	0.00	30.107 
04:20	44.2	44.2	44.2	91	41.7	0	0	---	0.00	30.107 
04:25	44.1	44.1	44.1	91	41.6	0	0	---	0.00	30.107 
04:30	43.9	43.9	43.9	91	41.4	0	0	---	0.00	30.111 
04:35	43.9	43.9	43.9	92	41.7	0	0	---	0.00	30.111 
04:40	43.9	43.9	43.9	92	41.7	0	0	---	0.00	30.111 
04:45	43.8	43.8	43.8	92	41.6	0	0	---	0.00	30.112 
04:50	43.5	43.5	43.5	92	41.3	0	0	---	0.00	30.112 
04:55	43.3	43.3	43.3	92	41.1	0	0	---	0.00	30.112 
05:00	43.1	43.1	43.1	92	40.9	0	0	---	0.00	30.115 
05:05	42.9	42.9	42.9	92	40.7	0	0	---	0.00	30.115 
05:10	42.8	42.8	42.8	92	40.6	0	0	---	0.00	30.115 
05:15	42.6	42.6	42.6	92	40.4	0	0	---	0.00	30.115 
05:20	42.6	42.6	42.6	92	40.4	0	0	---	0.00	30.115 
05:25	42.6	42.6	42.6	92	40.4	0	0	---	0.00	30.115 
05:30	42.5	42.5	42.5	92	40.3	0	0	---	0.00	30.118 
05:35	42.3	42.3	42.3	92	40.1	0	0	---	0.00	30.118 
05:40	42.3	42.3	42.3	93	40.4	0	0	---	0.00	30.118 
05:45	42.2	42.2	42.2	93	40.3	0	0	---	0.00	30.120 
05:50	42.3	42.3	42.3	93	40.4	0	0	---	0.00	30.120 
05:55	42.5	42.5	42.5	93	40.6	0	0	---	0.00	30.120 
06:00	42.5	42.5	42.5	93	40.6	0	0	---	0.00	30.122 
06:05	42.5	42.5	42.5	94	40.9	0	0	---	0.00	30.122 
06:10	42.5	42.5	42.5	94	40.9	0	0	---	0.00	30.122 
06:15	42.3	42.3	42.3	94	40.7	0	0	---	0.00	30.127 
06:20	42.2	42.2	42.2	94	40.6	0	0	---	0.00	30.127 
06:25	42.2	42.2	42.2	94	40.6	0	0	---	0.00	30.127 
06:30	42.3	42.3	42.3	94	40.7	0	0	---	0.00	30.126 
06:35	42.3	42.3	42.3	94	40.7	0	0	---	0.00	30.126 
06:40	42.2	42.2	42.2	94	40.6	0	0	---	0.00	30.126 
06:45	42.2	42.2	42.2	94	40.6	0	0	---	0.00	30.132 
06:50	42.2	42.2	42.2	94	40.6	0	0	---	0.00	30.132 
06:55	42.3	42.3	42.3	94	40.7	0	0	---	0.00	30.132 
07:00	42.5	42.5	42.5	94	40.9	0	1	315	0.00	30.140 
07:05	42.6	42.6	42.6	95	41.3	0	0	---	0.00	30.140 
07:10	42.8	42.8	42.8	95	41.5	0	0	---	0.00	30.140 
07:15	42.9	42.9	42.9	95	41.6	0	1	315	0.00	30.147 
07:20	43.3	43.3	43.3	95	42.0	0	1	315	0.00	30.147 
07:25	43.5	43.5	43.5	95	42.2	0	1	315	0.00	30.147 
07:30	43.8	43.8	43.8	95	42.5	0	1	315	0.00	30.148 
07:35	44.1	44.1	44.1	95	42.8	0	2	315	0.00	30.148 
07:40	44.3	44.3	44.3	95	43.0	0	1	315	0.00	30.148 
07:45	44.8	44.8	44.8	95	43.5	0	2	315	0.00	30.157 
07:50	45.2	45.2	45.2	94	43.6	0	1	315	0.00	30.157 
07:55	45.5	45.5	45.5	94	43.9	0	2	315	0.00	30.157 
08:00	46.0	46.0	46.0	93	44.1	0	2	315	0.00	30.157 
08:05	46.4	46.4	46.4	92	44.2	1	3	315	0.00	30.157 
08:10	46.8	46.8	46.8	90	44.0	1	2	292	0.00	30.157 
08:15	47.3	47.3	47.3	88	43.9	1	2	315	0.00	30.159 
08:20	47.9	47.9	47.9	85	43.6	0	2	315	0.00	30.159 
08:25	48.3	48.3	48.3	83	43.4	1	3	315	0.00	30.159 
08:30	48.6	48.6	48.6	80	42.7	1	4	315	0.00	30.156 
08:35	49.1	49.1	49.1	78	42.5	1	3	315	0.00	30.156 
08:40	49.5	49.5	49.5	77	42.6	0	2	315	0.00	30.156 
08:45	50.1	50.1	50.1	77	43.2	0	2	292	0.00	30.152 
08:50	50.2	50.2	50.2	74	42.2	1	2	292	0.00	30.152 
08:55	50.5	50.5	50.5	73	42.2	1	3	292	0.00	30.152 
09:00	50.8	50.8	50.8	73	42.5	1	4	270	0.00	30.156 
09:05	51.1	51.1	51.1	72	42.4	1	2	270	0.00	30.156 
09:10	51.6	51.6	51.6	72	42.9	1	3	292	0.00	30.156 
09:15	51.7	51.7	51.7	70	42.2	1	3	315	0.00	30.159 
09:20	51.7	51.7	51.7	68	41.5	1	3	315	0.00	30.159 
09:25	52.0	52.0	52.0	69	42.1	1	2	292	0.00	30.159 
09:30	52.6	52.6	52.6	67	42.0	0	3	292	0.00	30.159 
09:35	52.8	52.8	52.8	65	41.4	2	5	315	0.00	30.159 
09:40	52.8	52.8	52.8	66	41.8	1	4	315	0.00	30.159 
09:45	53.1	53.1	53.1	63	40.8	1	3	315	0.00	30.160 
09:50	53.1	53.1	53.1	64	41.2	1	3	315	0.00	30.160 
09:55	53.2	53.2	53.2	61	40.1	1	4	315	0.00	30.160 
10:00	53.8	53.8	53.8	64	41.9	1	2	315	0.00	30.158 
10:05	54.2	54.2	54.2	61	41.0	2	4	270	0.00	30.158 
10:10	54.1	54.1	54.1	59	40.1	2	4	270	0.00	30.158 
10:15	54.2	54.2	54.2	59	40.2	1	4	292	0.00	30.164 
10:20	54.7	54.7	54.7	62	41.9	1	3	270	0.00	30.164 
10:25	55.3	55.3	55.3	61	42.1	1	4	248	0.00	30.164 
10:30	55.7	55.7	55.7	58	41.2	1	3	315	0.00	30.159 
10:35	55.9	55.9	55.9	56	40.4	1	3	315	0.00	30.159 
10:40	56.0	56.0	56.0	55	40.1	1	4	270	0.00	30.159 
10:45	55.9	55.9	55.9	55	40.0	1	3	270	0.00	30.159 
10:50	56.2	56.2	56.2	56	40.7	1	3	338	0.00	30.159 
10:55	56.3	56.3	56.3	52	38.9	2	4	315	0.00	30.159 
11:00	56.3	56.3	56.3	54	39.9	1	6	315	0.00	30.150 
11:05	56.7	56.7	56.7	54	40.2	1	4	338	0.00	30.150 
11:10	57.2	57.2	57.2	53	40.2	0	2	338	0.00	30.150 
11:15	57.8	57.8	57.8	52	40.3	1	3	338	0.00	30.154 
11:20	58.1	58.1	58.1	52	40.6	1	5	270	0.00	30.154 
11:25	58.3	58.3	58.3	52	40.8	2	4	270	0.00	30.154 
11:30	58.6	58.6	58.6	50	40.0	1	3	292	0.00	30.157 
11:35	58.9	58.9	58.9	49	39.8	1	3	270	0.00	30.157 
11:40	58.9	58.9	58.9	50	40.3	1	5	338	0.00	30.157 
11:45	59.2	59.2	59.2	48	39.5	2	3	292	0.00	30.165 
11:50	59.3	59.3	59.3	48	39.6	2	5	315	0.00	30.165 
11:55	59.2	59.2	59.2	47	39.0	1	4	270	0.00	30.165 
12:00	59.5	59.5	59.5	45	38.1	2	5	270	0.00	30.166 
12:05	59.3	59.3	59.3	46	38.5	2	5	315	0.00	30.166 
12:10	59.8	59.8	59.8	44	37.8	2	5	270	0.00	30.166 
12:15	59.9	59.9	59.9	48	40.2	2	5	270	0.00	30.160 
12:20	60.1	60.1	60.1	45	38.7	3	5	248	0.00	30.160 
12:25	60.4	60.4	60.4	47	40.1	1	4	315	0.00	30.160 
12:30	60.5	60.5	60.5	45	39.1	2	4	315	0.00	30.159 
12:35	60.5	60.5	60.5	44	38.5	1	3	315	0.00	30.159 
12:40	60.7	60.7	60.7	47	40.3	2	5	270	0.00	30.159 
12:45	61.3	61.3	61.3	46	40.3	1	3	248	0.00	30.156 
12:50	61.6	61.6	61.6	43	38.9	1	4	338	0.00	30.156 
12:55	61.8	61.8	61.8	41	37.8	3	7	270	0.00	30.156 
13:00	61.6	61.6	61.6	39	36.4	2	5	292	0.00	30.155 
13:05	61.6	61.6	61.6	38	35.7	3	6	270	0.00	30.155 
13:10	61.5	61.5	61.5	40	37.0	2	4	292	0.00	30.155 
13:15	62.1	62.1	62.1	40	37.5	2	5	270	0.00	30.152 
13:20	61.8	61.8	61.8	38	35.9	2	7	338	0.00	30.152 
13:25	62.3	62.3	62.3	38	36.4	1	4	248	0.00	30.152 
13:30	62.4	62.4	62.4	39	37.1	2	5	315	0.00	30.141 
13:35	62.6	62.6	62.6	39	37.3	2	7	270	0.00	30.141 
13:40	63.1	63.1	63.1	37	36.4	1	6	315	0.00	30.141 
13:45	63.4	63.4	63.4	38	37.3	1	4	292	0.00	30.139 
13:50	63.9	63.9	63.9	41	39.7	1	3	292	0.00	30.139 
13:55	64.0	64.0	64.0	38	37.9	1	4	292	0.00	30.139 
14:00	64.0	64.0	64.0	38	37.9	2	4	292	0.00	30.136 
14:05	63.9	63.9	63.9	37	37.1	2	4	248	0.00	30.136 
14:10	63.5	63.5	63.5	38	37.4	0	1	315	0.00	30.136 
14:15	63.9	63.9	63.9	38	37.8	2	10	270	0.00	30.135 
14:20	63.9	63.9	63.9	38	37.8	2	4	315	0.00	30.135 
14:25	64.0	64.0	64.0	36	36.5	2	4	248	0.00	30.135 
14:30	63.9	63.9	63.9	38	37.8	2	5	270	0.00	30.139 
14:35	64.2	64.2	64.2	41	40.0	1	5	270	0.00	30.139 
14:40	64.5	64.5	64.5	35	36.2	1	4	270	0.00	30.139 
14:45	64.2	64.2	64.2	44	41.8	1	3	315	0.00	30.135 
14:50	63.9	63.9	63.9	36	36.4	1	4	315	0.00	30.135 
14:55	63.5	63.5	63.5	39	38.1	2	4	270	0.00	30.135 
15:00	63.9	63.9	63.9	38	37.8	1	5	315	0.00	30.138 
15:05	63.7	63.7	63.7	38	37.6	1	4	248	0.00	30.138 
15:10	63.4	63.4	63.4	38	37.3	2	5	248	0.00	30.138 
15:15	62.9	62.9	62.9	38	36.9	2	5	292	0.00	30.149 
15:20	62.6	62.6	62.6	39	37.3	1	4	248	0.00	30.149 
15:25	62.6	62.6	62.6	38	36.6	1	3	248	0.00	30.149 
15:30	63.1	63.1	63.1	38	37.1	1	4	270	0.00	30.145 
15:35	63.4	63.4	63.4	38	37.3	2	4	270	0.00	30.145 
15:40	63.1	63.1	63.1	38	37.1	1	4	270	0.00	30.145 
15:45	63.2	63.2	63.2	41	39.1	1	3	338	0.00	30.138 
15:50	63.9	63.9	63.9	39	38.5	2	3	270	0.00	30.138 
15:55	63.9	63.9	63.9	36	36.4	1	3	292	0.00	30.138 
16:00	63.5	63.5	63.5	39	38.1	1	5	248	0.00	30.130 
16:05	63.4	63.4	63.4	39	38.0	1	3	248	0.00	30.130 
16:10	63.1	63.1	63.1	40	38.4	1	5	270	0.00	30.130 
16:15	62.7	62.7	62.7	38	36.7	1	3	270	0.00	30.129 
16:20	62.6	62.6	62.6	39	37.3	1	2	248	0.00	30.129 
16:25	62.7	62.7	62.7	41	38.7	1	3	315	0.00	30.129 
16:30	63.7	63.7	63.7	42	40.2	1	4	248	0.00	30.123 
16:35	63.9	63.9	63.9	37	37.1	2	4	248	0.00	30.123 
16:40	64.0	64.0	64.0	42	40.4	1	4	248	0.00	30.123 
16:45	64.8	64.8	64.8	38	38.6	2	4	248	0.00	30.118 
16:50	64.2	64.2	64.2	38	38.1	1	5	248	0.00	30.118 
16:55	63.5	63.5	63.5	38	37.4	1	2	248	0.00	30.118 
17:00	62.9	62.9	62.9	39	37.6	0	2	248	0.00	30.113 
17:05	62.4	62.4	62.4	39	37.1	1	2	248	0.00	30.113 
17:10	62.0	62.0	62.0	42	38.6	1	4	270	0.00	30.113 
17:15	61.8	61.8	61.8	42	38.5	0	2	248	0.00	30.112 
17:20	61.6	61.6	61.6	43	38.9	0	1	248	0.00	30.112 
17:25	61.6	61.6	61.6	42	38.3	0	0	---	0.00	30.112 
17:30	61.5	61.5	61.5	43	38.8	0	1	248	0.00	30.111 
17:35	61.3	61.3	61.3	44	39.2	0	0	---	0.00	30.111 
17:40	61.0	61.0	61.0	50	42.2	0	1	248	0.00	30.111 
17:45	60.5	60.5	60.5	54	43.8	0	0	---	0.00	30.118 
17:50	59.6	59.6	59.6	55	43.4	0	3	248	0.00	30.118 
17:55	58.7	58.7	58.7	61	45.3	0	2	248	0.01	30.118 
18:00	57.3	57.3	57.3	67	46.4	1	4	270	0.01	30.125 
18:05	56.2	56.2	56.2	70	46.5	0	2	270	0.00	30.125 
18:10	55.6	55.6	55.6	73	47.1	0	1	270	0.00	30.125 
18:15	55.3	55.3	55.3	74	47.2	0	1	270	0.00	30.129 
18:20	55.3	55.3	55.3	74	47.2	0	1	270	0.00	30.129 
18:25	55.3	55.3	55.3	75	47.5	0	0	---	0.00	30.129 
18:30	55.3	55.3	55.3	74	47.2	0	0	---	0.00	30.117 
18:35	55.4	55.4	55.4	75	47.6	0	0	---	0.00	30.117 
18:40	55.4	55.4	55.4	75	47.6	0	0	---	0.00	30.117 
18:45	55.6	55.6	55.6	75	47.8	0	0	---	0.00	30.116 
18:50	55.6	55.6	55.6	75	47.8	0	0	---	0.00	30.116 
18:55	55.6	55.6	55.6	74	47.4	0	0	---	0.00	30.116 
19:00	55.6	55.6	55.6	74	47.4	0	1	270	0.00	30.130 
19:05	55.6	55.6	55.6	77	48.5	0	1	270	0.00	30.130 
19:10	55.1	55.1	55.1	78	48.4	0	1	270	0.00	30.130 
19:15	54.8	54.8	54.8	79	48.4	0	1	270	0.00	30.126 
19:20	54.5	54.5	54.5	80	48.5	0	1	270	0.00	30.126 
19:25	54.4	54.4	54.4	81	48.7	0	2	270	0.01	30.126 
19:30	54.2	54.2	54.2	82	48.8	0	1	270	0.00	30.128 
19:35	54.2	54.2	54.2	82	48.8	0	1	270	0.00	30.128 
19:40	54.1	54.1	54.1	83	49.1	0	0	---	0.00	30.128 
19:45	54.1	54.1	54.1	83	49.1	0	0	---	0.00	30.125 
19:50	53.9	53.9	53.9	83	48.9	0	0	---	0.00	30.125 
19:55	53.9	53.9	53.9	84	49.2	0	1	270	0.00	30.125 
20:00	53.9	53.9	53.9	84	49.2	0	0	---	0.00	30.125 
20:05	53.9	53.9	53.9	84	49.2	0	0	---	0.00	30.125 
20:10	53.9	53.9	53.9	84	49.2	0	0	---	0.00	30.125 
20:15	53.9	53.9	53.9	84	49.2	0	0	---	0.00	30.126 
20:20	53.9	53.9	53.9	84	49.2	0	0	---	0.00	30.126 
20:25	53.9	53.9	53.9	84	49.2	0	0	---	0.00	30.126 
20:30	53.9	53.9	53.9	84	49.2	0	0	---	0.00	30.127 
20:35	53.8	53.8	53.8	84	49.1	0	0	---	0.00	30.127 
20:40	53.6	53.6	53.6	85	49.2	0	0	---	0.00	30.127 
20:45	53.5	53.5	53.5	85	49.1	0	1	270	0.00	30.123 
20:50	53.5	53.5	53.5	86	49.4	0	0	---	0.00	30.123 
20:55	53.3	53.3	53.3	86	49.2	0	0	---	0.00	30.123 
21:00	53.2	53.2	53.2	86	49.1	0	0	---	0.00	30.117 
21:05	53.2	53.2	53.2	87	49.4	0	0	---	0.00	30.117 
21:10	53.1	53.1	53.1	86	49.0	0	0	---	0.00	30.117 
21:15	52.9	52.9	52.9	86	48.8	0	0	---	0.00	30.112 
21:20	52.8	52.8	52.8	86	48.7	0	0	---	0.00	30.112 
21:25	52.8	52.8	52.8	87	49.0	0	0	---	0.00	30.112 
21:30	52.8	52.8	52.8	87	49.0	0	0	---	0.00	30.123 
21:35	52.8	52.8	52.8	88	49.3	0	1	270	0.00	30.123 
21:40	52.9	52.9	52.9	88	49.4	0	2	270	0.04	30.123 
21:45	52.9	52.9	52.9	89	49.7	0	1	270	0.00	30.122 
21:50	52.8	52.8	52.8	89	49.6	0	0	---	0.00	30.122 
21:55	52.6	52.6	52.6	90	49.7	0	1	270	0.00	30.122 
22:00	52.5	52.5	52.5	90	49.7	0	0	---	0.00	30.115 
22:05	52.2	52.2	52.2	90	49.4	0	0	---	0.00	30.115 
22:10	52.0	52.0	52.0	90	49.2	0	0	---	0.00	30.115 
22:15	51.9	51.9	51.9	91	49.4	0	0	---	0.00	30.115 
22:20	51.9	51.9	51.9	91	49.4	0	0	---	0.00	30.115 
22:25	51.7	51.7	51.7	92	49.5	0	0	---	0.00	30.115 
22:30	51.9	51.9	51.9	92	49.6	0	1	270	0.02	30.111 
22:35	52.0	52.0	52.0	92	49.7	0	0	---	0.00	30.111 
22:40	51.9	51.9	51.9	92	49.6	0	0	---	0.00	30.111 
22:45	51.9	51.9	51.9	92	49.6	0	0	---	0.00	30.114 
22:50	51.7	51.7	51.7	92	49.5	0	0	---	0.00	30.114 
22:55	51.6	51.6	51.6	93	49.6	0	0	---	0.00	30.114 
23:00	51.4	51.4	51.4	93	49.4	0	0	---	0.00	30.112 
23:05	51.3	51.3	51.3	93	49.3	0	0	---	0.00	30.112 
23:10	51.1	51.1	51.1	93	49.1	0	0	---	0.00	30.112 
23:15	51.1	51.1	51.1	93	49.1	0	0	---	0.00	30.107 
23:20	51.0	51.0	51.0	93	49.0	0	0	---	0.00	30.107 
23:25	50.8	50.8	50.8	93	48.8	0	0	---	0.00	30.107 
23:30	50.5	50.5	50.5	93	48.6	0	0	---	0.00	30.106 
23:35	50.4	50.4	50.4	93	48.5	0	0	---	0.00	30.106 
23:40	50.1	50.1	50.1	93	48.2	0	0	---	0.00	30.106 
23:45	50.1	50.1	50.1	93	48.2	0	0	---	0.00	30.104 
23:50	49.9	49.9	49.9	93	48.0	0	0	---	0.00	30.104 
23:55	49.8	49.8	49.8	93	47.9	0	0	---	0.00	30.104 

CoCoRaHS
IN-AL-39
A2 Web Hosting
Creative Commons License
GoDaddy
search engine by freefind advanced

loaded 2018-11-20 06:20:23 • last modified 2010-11-18 10:43:29
Privacy PolicyDisclaimer
• wx.awcolley.com is powered by PmWiki v.2002016 •
• all content (unless otherwise noted) © 2018 A W Colley